createdAt,value
2022-09-13T00:00:01.556Z,16.7
2022-09-13T00:05:02.432Z,16.62
2022-09-13T00:10:02.189Z,16.57
2022-09-13T00:15:01.544Z,16.52
2022-09-13T00:20:01.546Z,16.6
2022-09-13T00:25:01.855Z,16.74
2022-09-13T00:30:01.723Z,16.76
2022-09-13T00:35:01.895Z,16.82
2022-09-13T00:40:02.014Z,16.84
2022-09-13T00:45:01.632Z,16.88
2022-09-13T00:50:02.162Z,16.85
2022-09-13T00:55:02.120Z,16.96
2022-09-13T01:00:02.207Z,17.22
2022-09-13T01:05:01.331Z,17.41
2022-09-13T01:10:03.143Z,17.65
2022-09-13T01:15:01.738Z,17.78
2022-09-13T01:20:01.932Z,17.83
2022-09-13T01:25:01.455Z,17.81
2022-09-13T01:30:02.111Z,17.85
2022-09-13T01:35:02.218Z,17.8
2022-09-13T01:40:01.924Z,17.69
2022-09-13T01:45:02.981Z,17.68
2022-09-13T01:50:01.379Z,17.56
2022-09-13T01:55:01.975Z,17.4
2022-09-13T02:00:01.282Z,17.43
2022-09-13T02:05:01.335Z,17.34
2022-09-13T02:10:01.880Z,17.05
2022-09-13T02:15:01.341Z,17.04
2022-09-13T02:20:01.185Z,16.95
2022-09-13T02:25:01.855Z,16.92
2022-09-13T02:30:01.605Z,17.06
2022-09-13T02:35:01.817Z,17.13
2022-09-13T02:40:02.105Z,17.28
2022-09-13T02:45:01.743Z,17.46
2022-09-13T02:50:01.462Z,17.49
2022-09-13T02:55:01.311Z,17.52
2022-09-13T03:00:01.914Z,17.53
2022-09-13T03:05:01.960Z,17.53
2022-09-13T03:10:01.823Z,17.64
2022-09-13T03:15:01.638Z,17.73
2022-09-13T03:20:01.393Z,17.8
2022-09-13T03:25:01.331Z,17.9
2022-09-13T03:30:01.373Z,17.89
2022-09-13T03:35:01.385Z,17.56
2022-09-13T03:40:01.663Z,17.31
2022-09-13T03:45:01.517Z,17.14
2022-09-13T03:50:01.994Z,17.06
2022-09-13T03:55:01.205Z,16.88
2022-09-13T04:00:01.321Z,16.9
2022-09-13T04:05:01.423Z,16.94
2022-09-13T04:10:01.573Z,17
2022-09-13T04:15:02.076Z,16.96
2022-09-13T04:20:01.306Z,16.95
2022-09-13T04:25:02.550Z,16.79
2022-09-13T04:30:02.021Z,16.61
2022-09-13T04:35:01.243Z,16.45
2022-09-13T04:40:01.277Z,16.36
2022-09-13T04:45:01.786Z,16.28
2022-09-13T04:50:01.249Z,16.22
2022-09-13T04:55:01.819Z,16.22
2022-09-13T05:00:01.606Z,16.2
2022-09-13T05:05:01.345Z,16.17
2022-09-13T05:10:01.728Z,16.24
2022-09-13T05:15:01.804Z,16.36
2022-09-13T05:20:01.434Z,16.55
2022-09-13T05:25:01.460Z,16.8
2022-09-13T05:30:01.181Z,17.01
2022-09-13T05:35:01.579Z,17.18
2022-09-13T05:40:11.593Z,17.22
2022-09-13T05:45:01.554Z,17.35
2022-09-13T05:50:10.237Z,17.43
2022-09-13T05:55:01.216Z,17.46
2022-09-13T06:00:01.206Z,17.55
2022-09-13T06:05:01.332Z,17.63
2022-09-13T06:10:01.980Z,17.73
2022-09-13T06:15:01.512Z,17.84
2022-09-13T06:20:01.688Z,17.98
2022-09-13T06:25:01.459Z,18.07
2022-09-13T06:30:01.835Z,18.15
2022-09-13T06:35:02.084Z,18.28
2022-09-13T06:40:02.180Z,18.39
2022-09-13T06:45:02.098Z,18.48
2022-09-13T06:50:01.367Z,18.49
2022-09-13T06:55:01.508Z,18.52
2022-09-13T07:00:01.849Z,18.59
2022-09-13T07:05:01.462Z,18.64
2022-09-13T07:10:01.233Z,18.68
2022-09-13T07:15:01.214Z,18.7
2022-09-13T07:20:02.106Z,18.69
2022-09-13T07:25:01.202Z,18.71
2022-09-13T07:30:01.650Z,18.79
2022-09-13T07:35:01.666Z,18.87
2022-09-13T07:40:01.828Z,19.1
2022-09-13T07:45:01.702Z,19.3
2022-09-13T07:50:01.187Z,19.47
2022-09-13T07:55:01.449Z,19.57
2022-09-13T08:00:01.900Z,19.76
2022-09-13T08:05:01.504Z,20.02
2022-09-13T08:10:02.061Z,20.12
2022-09-13T08:15:01.141Z,20.26
2022-09-13T08:20:01.211Z,20.47
2022-09-13T08:25:01.709Z,20.7
2022-09-13T08:30:01.716Z,20.88
2022-09-13T08:35:01.438Z,21.16
2022-09-13T08:40:01.843Z,21.21
2022-09-13T08:45:01.761Z,21.36
2022-09-13T08:50:01.317Z,21.59
2022-09-13T08:55:02.039Z,21.77
2022-09-13T09:00:02.069Z,21.88
2022-09-13T09:05:01.632Z,21.8
2022-09-13T09:10:01.497Z,21.95
2022-09-13T09:15:01.465Z,22.03
2022-09-13T09:20:01.551Z,22.06
2022-09-13T09:25:01.243Z,22.27
2022-09-13T09:30:01.900Z,22.55
2022-09-13T09:35:01.271Z,22.75
2022-09-13T09:40:01.628Z,22.84
2022-09-13T09:45:01.378Z,22.58
2022-09-13T09:50:02.102Z,22.86
2022-09-13T09:55:01.149Z,22.92
2022-09-13T10:00:01.185Z,22.84
2022-09-13T10:05:02.002Z,23.03
2022-09-13T10:10:01.398Z,22.99
2022-09-13T10:15:02.084Z,23.28
2022-09-13T10:20:01.768Z,23.39
2022-09-13T10:25:01.435Z,23.37
2022-09-13T10:30:01.517Z,23.28
2022-09-13T10:35:01.582Z,23.38
2022-09-13T10:40:01.687Z,23.29
2022-09-13T10:45:01.473Z,23.4
2022-09-13T10:50:01.740Z,23.31
2022-09-13T10:55:01.799Z,23.32
2022-09-13T11:00:01.414Z,23.28
2022-09-13T11:05:01.659Z,23.29
2022-09-13T11:10:01.921Z,23.32
2022-09-13T11:15:02.098Z,23.27
2022-09-13T11:20:01.405Z,23.3
2022-09-13T11:25:01.944Z,23.67
2022-09-13T11:30:01.471Z,23.68
2022-09-13T11:35:01.639Z,23.58
2022-09-13T11:40:01.341Z,23.62
2022-09-13T11:45:01.588Z,23.64
2022-09-13T11:50:01.952Z,23.73
2022-09-13T11:55:01.256Z,23.9
2022-09-13T12:00:01.667Z,24.12
2022-09-13T12:05:18.383Z,23.84
2022-09-13T12:10:01.612Z,23.86
2022-09-13T12:15:01.841Z,23.83
2022-09-13T12:20:01.749Z,23.87
2022-09-13T12:25:01.788Z,24.01
2022-09-13T12:30:01.971Z,24.1
2022-09-13T12:35:01.437Z,24.12
2022-09-13T12:40:01.587Z,24.14
2022-09-13T12:45:01.143Z,24.29
2022-09-13T12:50:09.715Z,24.46
2022-09-13T12:55:01.935Z,24.35
2022-09-13T13:00:01.353Z,24.36
2022-09-13T13:05:01.996Z,24.31
2022-09-13T13:10:01.547Z,24.41
2022-09-13T13:15:01.682Z,24.41
2022-09-13T13:20:01.770Z,24.27
2022-09-13T13:25:01.370Z,24.18
2022-09-13T13:30:02.180Z,24.19
2022-09-13T13:35:01.730Z,24.4
2022-09-13T13:40:02.151Z,24.41
2022-09-13T13:45:01.232Z,24.47
2022-09-13T13:50:01.998Z,24.58
2022-09-13T13:55:02.074Z,24.76
2022-09-13T14:00:01.337Z,24.91
2022-09-13T14:05:01.613Z,24.95
2022-09-13T14:10:01.298Z,24.92
2022-09-13T14:15:01.722Z,24.89
2022-09-13T14:20:02.045Z,24.92
2022-09-13T14:25:01.252Z,24.89
2022-09-13T14:30:02.038Z,24.82
2022-09-13T14:35:01.664Z,24.82
2022-09-13T14:40:02.072Z,24.69
2022-09-13T14:45:01.167Z,24.59
2022-09-13T14:50:01.405Z,24.54
2022-09-13T14:55:01.796Z,24.34
2022-09-13T15:00:02.100Z,24.14
2022-09-13T15:05:02.120Z,24.08
2022-09-13T15:10:02.124Z,24.03
2022-09-13T15:15:02.031Z,24.01
2022-09-13T15:20:02.140Z,23.92
2022-09-13T15:25:01.127Z,23.83
2022-09-13T15:30:01.221Z,23.73
2022-09-13T15:35:01.578Z,23.56
2022-09-13T15:40:01.490Z,23.43
2022-09-13T15:45:01.406Z,23.31
2022-09-13T15:50:02.016Z,23.2
2022-09-13T15:55:01.807Z,23.07
2022-09-13T16:00:06.344Z,22.96
2022-09-13T16:05:01.156Z,22.8
2022-09-13T16:10:01.884Z,22.64
2022-09-13T16:15:01.190Z,22.46
2022-09-13T16:20:01.493Z,22.23
2022-09-13T16:25:01.972Z,22.16
2022-09-13T16:30:01.423Z,21.84
2022-09-13T16:35:01.970Z,21.44
2022-09-13T16:40:01.423Z,21.16
2022-09-13T16:45:01.566Z,20.86
2022-09-13T16:50:01.627Z,20.65
2022-09-13T16:55:01.500Z,20.56
2022-09-13T17:00:01.338Z,20.36
2022-09-13T17:05:01.518Z,20.36
2022-09-13T17:10:01.619Z,20.5
2022-09-13T17:15:01.859Z,20.42
2022-09-13T17:20:01.458Z,20.33
2022-09-13T17:25:01.754Z,20.24
2022-09-13T17:30:07.098Z,20.19
2022-09-13T17:35:01.915Z,20.12
2022-09-13T17:40:02.032Z,20.06
2022-09-13T17:45:01.269Z,19.97
2022-09-13T17:50:01.420Z,19.87
2022-09-13T17:55:01.311Z,19.79
2022-09-13T18:00:02.077Z,19.74
2022-09-13T18:05:05.387Z,19.62
2022-09-13T18:10:02.019Z,19.56
2022-09-13T18:15:01.895Z,19.44
2022-09-13T18:20:02.011Z,19.37
2022-09-13T18:25:01.376Z,19.33
2022-09-13T18:30:01.636Z,19.25
2022-09-13T18:35:01.385Z,19.23
2022-09-13T18:40:01.639Z,19.21
2022-09-13T18:45:01.997Z,19.15
2022-09-13T18:50:01.588Z,19.05
2022-09-13T18:55:01.728Z,19
2022-09-13T19:00:01.166Z,19
2022-09-13T19:05:06.453Z,19.05
2022-09-13T19:10:01.514Z,18.92
2022-09-13T19:15:01.936Z,18.78
2022-09-13T19:20:01.402Z,18.73
2022-09-13T19:25:01.492Z,18.72
2022-09-13T19:30:01.534Z,18.7
2022-09-13T19:35:02.004Z,18.73
2022-09-13T19:40:02.152Z,18.72
2022-09-13T19:45:01.599Z,18.78
2022-09-13T19:50:01.741Z,18.79
2022-09-13T19:55:01.340Z,18.77
2022-09-13T20:00:01.874Z,18.74
2022-09-13T20:05:01.327Z,18.76
2022-09-13T20:10:02.040Z,18.71
2022-09-13T20:15:01.255Z,18.72
2022-09-13T20:20:01.938Z,18.72
2022-09-13T20:25:02.229Z,18.77
2022-09-13T20:30:01.399Z,18.76
2022-09-13T20:35:01.891Z,18.71
2022-09-13T20:40:01.583Z,18.69
2022-09-13T20:45:01.714Z,18.63
2022-09-13T20:50:02.100Z,18.47
2022-09-13T20:55:01.512Z,18.43
2022-09-13T21:00:01.359Z,18.41
2022-09-13T21:05:01.534Z,18.4
2022-09-13T21:10:01.390Z,18.44
2022-09-13T21:15:01.231Z,18.43
2022-09-13T21:20:01.541Z,18.4
2022-09-13T21:25:01.994Z,18.4
2022-09-13T21:30:01.759Z,18.37
2022-09-13T21:35:01.784Z,18.4
2022-09-13T21:40:01.848Z,18.4
2022-09-13T21:45:01.844Z,18.43
2022-09-13T21:50:01.825Z,18.44
2022-09-13T21:55:01.537Z,18.47
2022-09-13T22:00:01.654Z,18.41
2022-09-13T22:05:01.643Z,18.41
2022-09-13T22:10:01.678Z,18.4
2022-09-13T22:15:01.661Z,18.36
2022-09-13T22:20:01.777Z,18.33
2022-09-13T22:25:02.083Z,18.25
2022-09-13T22:30:01.451Z,18.21
2022-09-13T22:35:01.269Z,18.23
2022-09-13T22:40:01.275Z,18.26
2022-09-13T22:45:01.418Z,18.26
2022-09-13T22:50:01.891Z,18.36
2022-09-13T22:55:01.728Z,18.4
2022-09-13T23:00:02.069Z,18.39
2022-09-13T23:05:02.025Z,18.43
2022-09-13T23:10:01.831Z,18.43
2022-09-13T23:15:01.421Z,18.4
2022-09-13T23:20:01.333Z,18.35
2022-09-13T23:25:01.848Z,18.36
2022-09-13T23:30:01.608Z,18.24
2022-09-13T23:35:02.148Z,18.23
2022-09-13T23:40:01.335Z,18.22
2022-09-13T23:45:01.940Z,18.14
2022-09-13T23:50:01.804Z,18.15
2022-09-13T23:55:01.945Z,18.14
